Terminal Aerodrome Forecast
Issued by NWS

Home | Current Version | Previous Version | Text Only | Print | Product List | Glossary On
Versions: 1 2 3 4 5 6 7 8 9 10 11 12 13 14 15 16 17 18 19 20
376
FTUS43 KLSX 242339
TAFCPS
TAF
KCPS 242339Z 2500/2524 21004KT P6SM VCTS SCT045CB
     FM250100 VRB04KT P6SM SCT250
     FM251500 25005KT P6SM SCT045
     FM251800 29006KT P6SM SCT045=

USA.gov is the U.S. government's official web portal to all federal, state and local government web resources and services.